Terminal Aerodrome Forecast
Issued by NWS

Home | Current Version | Previous Version | Text Only | Print | Product List | Glossary On
Versions: 1 2 3 4 5 6 7 8 9 10 11 12 13 14 15 16 17 18 19
737
FTUS43 KMQT 300538
TAFIWD
TAF
KIWD 300538Z 3006/0106 07004KT P6SM BKN008
     FM301100 09003KT 2SM BR BKN005
     FM301400 08003KT 3SM BR SCT008
     FM301600 04006KT P6SM SCT025
     FM010500 13003KT P6SM SCT080=

USA.gov is the U.S. government's official web portal to all federal, state and local government web resources and services.